sensor_id;sensor_type;location;lat;lon;timestamp;P1;durP1;ratioP1;P2;durP2;ratioP2
2175;SDS011;1094;49.902;10.876;2023-07-13T00:00:22;21.33;;;19.53;;
2175;SDS011;1094;49.902;10.876;2023-07-13T00:02:48;20.87;;;19.67;;
2175;SDS011;1094;49.902;10.876;2023-07-13T00:05:14;20.90;;;19.70;;
2175;SDS011;1094;49.902;10.876;2023-07-13T00:07:41;20.30;;;19.13;;
2175;SDS011;1094;49.902;10.876;2023-07-13T00:10:07;20.33;;;19.23;;
2175;SDS011;1094;49.902;10.876;2023-07-13T00:12:35;20.10;;;19.00;;
2175;SDS011;1094;49.902;10.876;2023-07-13T00:15:04;20.67;;;19.53;;
2175;SDS011;1094;49.902;10.876;2023-07-13T00:17:30;20.97;;;19.77;;
2175;SDS011;1094;49.902;10.876;2023-07-13T00:19:57;20.90;;;19.70;;
2175;SDS011;1094;49.902;10.876;2023-07-13T00:22:23;20.43;;;19.30;;
2175;SDS011;1094;49.902;10.876;2023-07-13T00:24:50;21.00;;;19.57;;
2175;SDS011;1094;49.902;10.876;2023-07-13T00:27:16;20.50;;;19.40;;
2175;SDS011;1094;49.902;10.876;2023-07-13T00:29:42;20.97;;;19.77;;
2175;SDS011;1094;49.902;10.876;2023-07-13T00:32:09;20.70;;;19.47;;
2175;SDS011;1094;49.902;10.876;2023-07-13T00:34:36;21.20;;;20.00;;
2175;SDS011;1094;49.902;10.876;2023-07-13T00:37:02;20.97;;;19.80;;
2175;SDS011;1094;49.902;10.876;2023-07-13T00:39:28;20.40;;;19.20;;
2175;SDS011;1094;49.902;10.876;2023-07-13T00:41:54;20.63;;;19.43;;
2175;SDS011;1094;49.902;10.876;2023-07-13T00:44:20;20.73;;;19.53;;
2175;SDS011;1094;49.902;10.876;2023-07-13T00:46:48;21.13;;;19.73;;
2175;SDS011;1094;49.902;10.876;2023-07-13T00:49:15;20.90;;;19.70;;
2175;SDS011;1094;49.902;10.876;2023-07-13T00:51:47;20.70;;;19.60;;
2175;SDS011;1094;49.902;10.876;2023-07-13T00:54:15;20.70;;;19.50;;
2175;SDS011;1094;49.902;10.876;2023-07-13T00:56:43;20.90;;;19.70;;
2175;SDS011;1094;49.902;10.876;2023-07-13T00:59:10;20.77;;;19.57;;
2175;SDS011;1094;49.902;10.876;2023-07-13T01:01:36;20.50;;;19.40;;
2175;SDS011;1094;49.902;10.876;2023-07-13T01:04:04;20.20;;;19.10;;
2175;SDS011;1094;49.902;10.876;2023-07-13T01:06:32;20.20;;;19.10;;
2175;SDS011;1094;49.902;10.876;2023-07-13T01:08:58;20.27;;;19.13;;
2175;SDS011;1094;49.902;10.876;2023-07-13T01:11:25;20.90;;;19.50;;
2175;SDS011;1094;49.902;10.876;2023-07-13T01:13:52;20.40;;;19.20;;
2175;SDS011;1094;49.902;10.876;2023-07-13T01:16:24;20.60;;;19.40;;
2175;SDS011;1094;49.902;10.876;2023-07-13T01:18:50;20.53;;;19.43;;
2175;SDS011;1094;49.902;10.876;2023-07-13T01:21:16;20.87;;;19.60;;
2175;SDS011;1094;49.902;10.876;2023-07-13T01:23:43;21.47;;;20.03;;
2175;SDS011;1094;49.902;10.876;2023-07-13T01:26:10;21.33;;;19.90;;
2175;SDS011;1094;49.902;10.876;2023-07-13T01:28:37;21.23;;;20.10;;
2175;SDS011;1094;49.902;10.876;2023-07-13T01:31:03;20.93;;;19.80;;
2175;SDS011;1094;49.902;10.876;2023-07-13T01:33:29;20.90;;;19.50;;
2175;SDS011;1094;49.902;10.876;2023-07-13T01:35:55;20.83;;;19.70;;
2175;SDS011;1094;49.902;10.876;2023-07-13T01:38:24;20.80;;;19.70;;
2175;SDS011;1094;49.902;10.876;2023-07-13T01:40:51;22.33;;;20.80;;
2175;SDS011;1094;49.902;10.876;2023-07-13T01:43:17;21.53;;;20.20;;
2175;SDS011;1094;49.902;10.876;2023-07-13T01:45:43;20.80;;;19.70;;
2175;SDS011;1094;49.902;10.876;2023-07-13T01:48:09;21.83;;;20.40;;
2175;SDS011;1094;49.902;10.876;2023-07-13T01:50:36;20.97;;;19.77;;
2175;SDS011;1094;49.902;10.876;2023-07-13T01:53:02;21.07;;;19.77;;
2175;SDS011;1094;49.902;10.876;2023-07-13T01:55:28;21.47;;;19.97;;
2175;SDS011;1094;49.902;10.876;2023-07-13T01:57:55;21.63;;;20.27;;
2175;SDS011;1094;49.902;10.876;2023-07-13T02:00:21;21.10;;;19.70;;
2175;SDS011;1094;49.902;10.876;2023-07-13T02:02:47;21.30;;;20.00;;
2175;SDS011;1094;49.902;10.876;2023-07-13T02:05:13;20.70;;;19.60;;
2175;SDS011;1094;49.902;10.876;2023-07-13T02:07:39;21.90;;;20.50;;
2175;SDS011;1094;49.902;10.876;2023-07-13T02:10:06;21.90;;;20.50;;
2175;SDS011;1094;49.902;10.876;2023-07-13T02:12:33;22.13;;;20.93;;
2175;SDS011;1094;49.902;10.876;2023-07-13T02:14:58;21.30;;;20.20;;
2175;SDS011;1094;49.902;10.876;2023-07-13T02:17:25;21.00;;;19.90;;
2175;SDS011;1094;49.902;10.876;2023-07-13T02:19:52;21.43;;;19.90;;
2175;SDS011;1094;49.902;10.876;2023-07-13T02:22:18;21.90;;;20.53;;
2175;SDS011;1094;49.902;10.876;2023-07-13T02:24:44;21.53;;;20.23;;
2175;SDS011;1094;49.902;10.876;2023-07-13T02:27:09;21.80;;;20.47;;
2175;SDS011;1094;49.902;10.876;2023-07-13T02:29:35;21.50;;;20.20;;
2175;SDS011;1094;49.902;10.876;2023-07-13T02:32:01;21.33;;;20.03;;
2175;SDS011;1094;49.902;10.876;2023-07-13T02:34:27;20.80;;;19.57;;
2175;SDS011;1094;49.902;10.876;2023-07-13T02:36:53;22.03;;;20.60;;
2175;SDS011;1094;49.902;10.876;2023-07-13T02:39:19;22.13;;;20.83;;
2175;SDS011;1094;49.902;10.876;2023-07-13T02:41:45;21.63;;;20.27;;
2175;SDS011;1094;49.902;10.876;2023-07-13T02:44:14;21.07;;;19.87;;
2175;SDS011;1094;49.902;10.876;2023-07-13T02:46:40;21.97;;;20.50;;
2175;SDS011;1094;49.902;10.876;2023-07-13T02:49:06;21.50;;;20.10;;
2175;SDS011;1094;49.902;10.876;2023-07-13T02:51:32;21.10;;;19.87;;
2175;SDS011;1094;49.902;10.876;2023-07-13T02:53:59;21.40;;;20.20;;
2175;SDS011;1094;49.902;10.876;2023-07-13T02:56:26;22.13;;;20.90;;
2175;SDS011;1094;49.902;10.876;2023-07-13T02:58:52;21.20;;;20.00;;
2175;SDS011;1094;49.902;10.876;2023-07-13T03:01:20;21.30;;;20.10;;
2175;SDS011;1094;49.902;10.876;2023-07-13T03:03:46;21.43;;;20.17;;
2175;SDS011;1094;49.902;10.876;2023-07-13T03:06:12;21.00;;;19.90;;
2175;SDS011;1094;49.902;10.876;2023-07-13T03:08:38;21.90;;;20.67;;
2175;SDS011;1094;49.902;10.876;2023-07-13T03:11:09;21.57;;;20.37;;
2175;SDS011;1094;49.902;10.876;2023-07-13T03:13:39;21.80;;;20.50;;
2175;SDS011;1094;49.902;10.876;2023-07-13T03:16:05;22.30;;;20.90;;
2175;SDS011;1094;49.902;10.876;2023-07-13T03:18:31;23.00;;;21.60;;
2175;SDS011;1094;49.902;10.876;2023-07-13T03:20:57;21.93;;;20.73;;
2175;SDS011;1094;49.902;10.876;2023-07-13T03:23:23;22.07;;;20.77;;
2175;SDS011;1094;49.902;10.876;2023-07-13T03:25:50;21.93;;;20.63;;
2175;SDS011;1094;49.902;10.876;2023-07-13T03:28:16;22.83;;;21.33;;
2175;SDS011;1094;49.902;10.876;2023-07-13T03:30:42;22.87;;;21.47;;
2175;SDS011;1094;49.902;10.876;2023-07-13T03:33:08;22.97;;;21.43;;
2175;SDS011;1094;49.902;10.876;2023-07-13T03:35:34;22.43;;;21.03;;
2175;SDS011;1094;49.902;10.876;2023-07-13T03:38:00;21.97;;;20.67;;
2175;SDS011;1094;49.902;10.876;2023-07-13T03:40:27;22.87;;;21.37;;
2175;SDS011;1094;49.902;10.876;2023-07-13T03:42:53;21.90;;;20.60;;
2175;SDS011;1094;49.902;10.876;2023-07-13T03:45:19;22.13;;;20.73;;
2175;SDS011;1094;49.902;10.876;2023-07-13T03:47:45;24.20;;;22.27;;
2175;SDS011;1094;49.902;10.876;2023-07-13T03:50:11;21.80;;;20.60;;
2175;SDS011;1094;49.902;10.876;2023-07-13T03:52:37;22.30;;;21.10;;
2175;SDS011;1094;49.902;10.876;2023-07-13T03:55:03;22.20;;;20.87;;
2175;SDS011;1094;49.902;10.876;2023-07-13T03:57:30;22.67;;;21.17;;
2175;SDS011;1094;49.902;10.876;2023-07-13T03:59:56;22.47;;;21.27;;
2175;SDS011;1094;49.902;10.876;2023-07-13T04:02:22;21.80;;;20.60;;
2175;SDS011;1094;49.902;10.876;2023-07-13T04:04:48;22.83;;;21.30;;
2175;SDS011;1094;49.902;10.876;2023-07-13T04:07:14;23.20;;;21.57;;
2175;SDS011;1094;49.902;10.876;2023-07-13T04:09:40;22.30;;;20.80;;
2175;SDS011;1094;49.902;10.876;2023-07-13T04:12:06;21.10;;;19.90;;
2175;SDS011;1094;49.902;10.876;2023-07-13T04:14:32;21.27;;;20.17;;
2175;SDS011;1094;49.902;10.876;2023-07-13T04:16:58;22.60;;;21.27;;
2175;SDS011;1094;49.902;10.876;2023-07-13T04:19:24;22.23;;;20.73;;
2175;SDS011;1094;49.902;10.876;2023-07-13T04:21:50;21.40;;;20.10;;
2175;SDS011;1094;49.902;10.876;2023-07-13T04:24:16;21.00;;;19.80;;
2175;SDS011;1094;49.902;10.876;2023-07-13T04:26:42;20.97;;;19.73;;
2175;SDS011;1094;49.902;10.876;2023-07-13T04:29:08;20.27;;;19.17;;
2175;SDS011;1094;49.902;10.876;2023-07-13T04:31:34;20.50;;;19.33;;
2175;SDS011;1094;49.902;10.876;2023-07-13T04:34:00;20.47;;;19.20;;
2175;SDS011;1094;49.902;10.876;2023-07-13T04:36:26;20.03;;;18.73;;
2175;SDS011;1094;49.902;10.876;2023-07-13T04:38:52;20.70;;;19.50;;
2175;SDS011;1094;49.902;10.876;2023-07-13T04:41:19;20.70;;;19.47;;
2175;SDS011;1094;49.902;10.876;2023-07-13T04:43:45;19.63;;;18.53;;
2175;SDS011;1094;49.902;10.876;2023-07-13T04:46:12;20.60;;;19.40;;
2175;SDS011;1094;49.902;10.876;2023-07-13T04:48:38;19.77;;;18.57;;
2175;SDS011;1094;49.902;10.876;2023-07-13T04:51:04;20.30;;;19.00;;
2175;SDS011;1094;49.902;10.876;2023-07-13T04:53:30;20.67;;;19.37;;
2175;SDS011;1094;49.902;10.876;2023-07-13T04:55:57;20.10;;;18.90;;
2175;SDS011;1094;49.902;10.876;2023-07-13T04:58:24;20.83;;;19.23;;
2175;SDS011;1094;49.902;10.876;2023-07-13T05:00:50;19.70;;;18.60;;
2175;SDS011;1094;49.902;10.876;2023-07-13T05:03:16;20.80;;;19.47;;
2175;SDS011;1094;49.902;10.876;2023-07-13T05:05:42;19.80;;;18.70;;
2175;SDS011;1094;49.902;10.876;2023-07-13T05:08:08;19.57;;;18.37;;
2175;SDS011;1094;49.902;10.876;2023-07-13T05:10:35;20.33;;;18.93;;
2175;SDS011;1094;49.902;10.876;2023-07-13T05:13:01;20.50;;;19.10;;
2175;SDS011;1094;49.902;10.876;2023-07-13T05:15:28;21.87;;;20.33;;
2175;SDS011;1094;49.902;10.876;2023-07-13T05:17:53;22.47;;;20.53;;
2175;SDS011;1094;49.902;10.876;2023-07-13T05:20:19;21.00;;;19.53;;
2175;SDS011;1094;49.902;10.876;2023-07-13T05:22:45;22.07;;;20.30;;
2175;SDS011;1094;49.902;10.876;2023-07-13T05:25:12;21.27;;;19.67;;
2175;SDS011;1094;49.902;10.876;2023-07-13T05:27:38;20.60;;;19.10;;
2175;SDS011;1094;49.902;10.876;2023-07-13T05:30:05;20.63;;;19.17;;
2175;SDS011;1094;49.902;10.876;2023-07-13T05:32:32;20.90;;;19.47;;
2175;SDS011;1094;49.902;10.876;2023-07-13T05:34:58;20.20;;;18.57;;
2175;SDS011;1094;49.902;10.876;2023-07-13T05:37:24;19.70;;;18.30;;
2175;SDS011;1094;49.902;10.876;2023-07-13T05:39:50;20.50;;;18.93;;
2175;SDS011;1094;49.902;10.876;2023-07-13T05:42:17;20.63;;;19.13;;
2175;SDS011;1094;49.902;10.876;2023-07-13T05:44:42;20.97;;;19.60;;
2175;SDS011;1094;49.902;10.876;2023-07-13T05:47:08;21.77;;;20.10;;
2175;SDS011;1094;49.902;10.876;2023-07-13T05:49:34;22.10;;;20.50;;
2175;SDS011;1094;49.902;10.876;2023-07-13T05:52:00;20.67;;;19.33;;
2175;SDS011;1094;49.902;10.876;2023-07-13T05:54:26;20.33;;;19.13;;
2175;SDS011;1094;49.902;10.876;2023-07-13T05:56:53;20.13;;;18.83;;
2175;SDS011;1094;49.902;10.876;2023-07-13T05:59:18;20.40;;;19.00;;
2175;SDS011;1094;49.902;10.876;2023-07-13T06:01:44;21.30;;;19.77;;
2175;SDS011;1094;49.902;10.876;2023-07-13T06:04:10;21.50;;;19.50;;
2175;SDS011;1094;49.902;10.876;2023-07-13T06:06:36;20.37;;;18.97;;
2175;SDS011;1094;49.902;10.876;2023-07-13T06:09:03;20.17;;;18.87;;
2175;SDS011;1094;49.902;10.876;2023-07-13T06:11:29;21.77;;;19.47;;
2175;SDS011;1094;49.902;10.876;2023-07-13T06:13:55;20.47;;;19.17;;
2175;SDS011;1094;49.902;10.876;2023-07-13T06:16:21;20.03;;;18.53;;
2175;SDS011;1094;49.902;10.876;2023-07-13T06:18:47;20.10;;;18.80;;
2175;SDS011;1094;49.902;10.876;2023-07-13T06:21:14;19.90;;;18.60;;
2175;SDS011;1094;49.902;10.876;2023-07-13T06:23:40;21.60;;;19.80;;
2175;SDS011;1094;49.902;10.876;2023-07-13T06:26:07;20.27;;;19.07;;
2175;SDS011;1094;49.902;10.876;2023-07-13T06:28:33;20.20;;;18.80;;
2175;SDS011;1094;49.902;10.876;2023-07-13T06:30:59;19.97;;;18.57;;
2175;SDS011;1094;49.902;10.876;2023-07-13T06:33:25;21.03;;;19.63;;
2175;SDS011;1094;49.902;10.876;2023-07-13T06:35:51;21.53;;;19.40;;
2175;SDS011;1094;49.902;10.876;2023-07-13T06:38:19;21.27;;;19.53;;
2175;SDS011;1094;49.902;10.876;2023-07-13T06:40:45;19.40;;;18.13;;
2175;SDS011;1094;49.902;10.876;2023-07-13T06:43:11;20.67;;;19.17;;
2175;SDS011;1094;49.902;10.876;2023-07-13T06:45:41;21.30;;;19.50;;
2175;SDS011;1094;49.902;10.876;2023-07-13T06:48:07;21.17;;;19.37;;
2175;SDS011;1094;49.902;10.876;2023-07-13T06:50:33;21.93;;;20.13;;
2175;SDS011;1094;49.902;10.876;2023-07-13T06:52:59;20.77;;;19.00;;
2175;SDS011;1094;49.902;10.876;2023-07-13T06:55:25;20.53;;;19.00;;
2175;SDS011;1094;49.902;10.876;2023-07-13T06:57:51;21.43;;;19.80;;
2175;SDS011;1094;49.902;10.876;2023-07-13T07:00:17;19.50;;;18.30;;
2175;SDS011;1094;49.902;10.876;2023-07-13T07:02:44;19.37;;;18.07;;
2175;SDS011;1094;49.902;10.876;2023-07-13T07:05:10;19.30;;;18.00;;
2175;SDS011;1094;49.902;10.876;2023-07-13T07:07:36;18.83;;;17.60;;
2175;SDS011;1094;49.902;10.876;2023-07-13T07:10:02;19.87;;;18.37;;
2175;SDS011;1094;49.902;10.876;2023-07-13T07:12:28;18.53;;;17.33;;
2175;SDS011;1094;49.902;10.876;2023-07-13T07:14:54;18.60;;;17.47;;
2175;SDS011;1094;49.902;10.876;2023-07-13T07:17:20;18.80;;;17.00;;
2175;SDS011;1094;49.902;10.876;2023-07-13T07:19:46;18.67;;;17.37;;
2175;SDS011;1094;49.902;10.876;2023-07-13T07:22:12;18.40;;;17.23;;
2175;SDS011;1094;49.902;10.876;2023-07-13T07:24:38;18.70;;;17.50;;
2175;SDS011;1094;49.902;10.876;2023-07-13T07:27:04;18.60;;;17.30;;
2175;SDS011;1094;49.902;10.876;2023-07-13T07:29:30;18.70;;;17.50;;
2175;SDS011;1094;49.902;10.876;2023-07-13T07:31:56;18.27;;;17.30;;
2175;SDS011;1094;49.902;10.876;2023-07-13T07:34:22;18.43;;;17.30;;
2175;SDS011;1094;49.902;10.876;2023-07-13T07:36:48;18.83;;;17.53;;
2175;SDS011;1094;49.902;10.876;2023-07-13T07:39:14;18.93;;;17.50;;
2175;SDS011;1094;49.902;10.876;2023-07-13T07:41:39;18.47;;;17.37;;
2175;SDS011;1094;49.902;10.876;2023-07-13T07:44:05;19.10;;;17.30;;
2175;SDS011;1094;49.902;10.876;2023-07-13T07:46:32;17.93;;;16.93;;
2175;SDS011;1094;49.902;10.876;2023-07-13T07:48:58;18.40;;;17.13;;
2175;SDS011;1094;49.902;10.876;2023-07-13T07:51:24;17.87;;;16.77;;
2175;SDS011;1094;49.902;10.876;2023-07-13T07:53:51;17.90;;;16.60;;
2175;SDS011;1094;49.902;10.876;2023-07-13T07:56:17;18.20;;;16.90;;
2175;SDS011;1094;49.902;10.876;2023-07-13T07:58:43;18.20;;;17.10;;
2175;SDS011;1094;49.902;10.876;2023-07-13T08:01:09;17.77;;;16.60;;
2175;SDS011;1094;49.902;10.876;2023-07-13T08:03:35;17.60;;;16.40;;
2175;SDS011;1094;49.902;10.876;2023-07-13T08:06:01;17.83;;;16.70;;
2175;SDS011;1094;49.902;10.876;2023-07-13T08:08:28;17.67;;;16.73;;
2175;SDS011;1094;49.902;10.876;2023-07-13T08:10:54;18.00;;;16.80;;
2175;SDS011;1094;49.902;10.876;2023-07-13T08:13:19;17.60;;;16.70;;
2175;SDS011;1094;49.902;10.876;2023-07-13T08:15:46;17.50;;;16.60;;
2175;SDS011;1094;49.902;10.876;2023-07-13T08:18:12;17.40;;;16.50;;
2175;SDS011;1094;49.902;10.876;2023-07-13T08:20:38;17.60;;;16.70;;
2175;SDS011;1094;49.902;10.876;2023-07-13T08:23:04;17.20;;;16.30;;
2175;SDS011;1094;49.902;10.876;2023-07-13T08:25:30;16.92;;;16.02;;
2175;SDS011;1094;49.902;10.876;2023-07-13T08:27:56;17.02;;;15.90;;
2175;SDS011;1094;49.902;10.876;2023-07-13T08:30:22;16.90;;;16.00;;
2175;SDS011;1094;49.902;10.876;2023-07-13T08:32:48;17.00;;;16.10;;
2175;SDS011;1094;49.902;10.876;2023-07-13T08:35:14;17.75;;;16.38;;
2175;SDS011;1094;49.902;10.876;2023-07-13T08:37:41;16.77;;;15.98;;
2175;SDS011;1094;49.902;10.876;2023-07-13T08:40:11;17.40;;;16.40;;
2175;SDS011;1094;49.902;10.876;2023-07-13T08:42:48;17.10;;;16.20;;
2175;SDS011;1094;49.902;10.876;2023-07-13T08:45:22;17.10;;;16.30;;
2175;SDS011;1094;49.902;10.876;2023-07-13T08:48:08;17.30;;;16.50;;
2175;SDS011;1094;49.902;10.876;2023-07-13T08:50:39;16.80;;;16.00;;
2175;SDS011;1094;49.902;10.876;2023-07-13T08:53:09;16.63;;;15.73;;
2175;SDS011;1094;49.902;10.876;2023-07-13T08:55:38;16.65;;;15.85;;
2175;SDS011;1094;49.902;10.876;2023-07-13T08:58:13;16.60;;;15.70;;
2175;SDS011;1094;49.902;10.876;2023-07-13T09:03:07;16.80;;;15.98;;
2175;SDS011;1094;49.902;10.876;2023-07-13T09:05:38;16.50;;;15.70;;
2175;SDS011;1094;49.902;10.876;2023-07-13T09:08:21;16.70;;;15.80;;
2175;SDS011;1094;49.902;10.876;2023-07-13T09:10:52;16.60;;;15.60;;
2175;SDS011;1094;49.902;10.876;2023-07-13T09:14:06;16.75;;;15.75;;
2175;SDS011;1094;49.902;10.876;2023-07-13T09:16:05;16.27;;;15.43;;
2175;SDS011;1094;49.902;10.876;2023-07-13T09:18:33;17.20;;;16.10;;
2175;SDS011;1094;49.902;10.876;2023-07-13T09:21:10;16.83;;;16.02;;
2175;SDS011;1094;49.902;10.876;2023-07-13T09:23:38;16.90;;;15.90;;
2175;SDS011;1094;49.902;10.876;2023-07-13T09:26:07;16.48;;;15.40;;
2175;SDS011;1094;49.902;10.876;2023-07-13T09:28:38;16.40;;;15.60;;
2175;SDS011;1094;49.902;10.876;2023-07-13T09:31:15;16.58;;;15.55;;
2175;SDS011;1094;49.902;10.876;2023-07-13T09:33:42;16.70;;;15.80;;
2175;SDS011;1094;49.902;10.876;2023-07-13T09:36:41;16.50;;;15.63;;
2175;SDS011;1094;49.902;10.876;2023-07-13T09:41:33;16.90;;;16.00;;
2175;SDS011;1094;49.902;10.876;2023-07-13T09:46:34;16.63;;;15.60;;
2175;SDS011;1094;49.902;10.876;2023-07-13T09:49:00;16.60;;;15.80;;
2175;SDS011;1094;49.902;10.876;2023-07-13T09:51:26;17.27;;;16.27;;
2175;SDS011;1094;49.902;10.876;2023-07-13T09:53:52;16.80;;;15.90;;
2175;SDS011;1094;49.902;10.876;2023-07-13T09:56:19;17.48;;;16.35;;
2175;SDS011;1094;49.902;10.876;2023-07-13T09:58:45;16.95;;;16.00;;
2175;SDS011;1094;49.902;10.876;2023-07-13T10:01:11;17.20;;;16.15;;
2175;SDS011;1094;49.902;10.876;2023-07-13T10:03:39;17.05;;;15.85;;
2175;SDS011;1094;49.902;10.876;2023-07-13T10:06:15;16.50;;;15.60;;
2175;SDS011;1094;49.902;10.876;2023-07-13T10:08:41;16.50;;;15.60;;
2175;SDS011;1094;49.902;10.876;2023-07-13T10:11:09;16.60;;;15.80;;
2175;SDS011;1094;49.902;10.876;2023-07-13T10:13:36;16.63;;;15.73;;
2175;SDS011;1094;49.902;10.876;2023-07-13T10:16:03;16.52;;;15.68;;
2175;SDS011;1094;49.902;10.876;2023-07-13T10:18:31;16.50;;;15.60;;
2175;SDS011;1094;49.902;10.876;2023-07-13T10:21:00;16.60;;;15.60;;
2175;SDS011;1094;49.902;10.876;2023-07-13T10:23:34;16.30;;;15.30;;
2175;SDS011;1094;49.902;10.876;2023-07-13T10:26:00;16.50;;;15.60;;
2175;SDS011;1094;49.902;10.876;2023-07-13T10:28:29;17.13;;;15.98;;
2175;SDS011;1094;49.902;10.876;2023-07-13T10:30:56;17.30;;;16.30;;
2175;SDS011;1094;49.902;10.876;2023-07-13T10:33:24;17.13;;;16.30;;
2175;SDS011;1094;49.902;10.876;2023-07-13T10:35:51;17.87;;;16.90;;
2175;SDS011;1094;49.902;10.876;2023-07-13T10:38:20;18.07;;;16.93;;
2175;SDS011;1094;49.902;10.876;2023-07-13T10:40:53;17.80;;;16.80;;
2175;SDS011;1094;49.902;10.876;2023-07-13T10:43:23;18.87;;;17.60;;
2175;SDS011;1094;49.902;10.876;2023-07-13T10:45:51;17.30;;;16.40;;
2175;SDS011;1094;49.902;10.876;2023-07-13T10:48:19;17.20;;;16.20;;
2175;SDS011;1094;49.902;10.876;2023-07-13T10:50:47;17.23;;;16.30;;
2175;SDS011;1094;49.902;10.876;2023-07-13T10:53:18;17.42;;;16.42;;
2175;SDS011;1094;49.902;10.876;2023-07-13T10:58:19;16.60;;;15.80;;
2175;SDS011;1094;49.902;10.876;2023-07-13T11:00:51;17.10;;;16.20;;
2175;SDS011;1094;49.902;10.876;2023-07-13T11:03:20;17.08;;;15.90;;
2175;SDS011;1094;49.902;10.876;2023-07-13T11:05:49;16.65;;;15.85;;
2175;SDS011;1094;49.902;10.876;2023-07-13T11:08:19;16.93;;;16.00;;
2175;SDS011;1094;49.902;10.876;2023-07-13T11:15:59;17.80;;;16.90;;
2175;SDS011;1094;49.902;10.876;2023-07-13T11:18:25;17.70;;;16.77;;
2175;SDS011;1094;49.902;10.876;2023-07-13T11:20:51;17.77;;;16.77;;
2175;SDS011;1094;49.902;10.876;2023-07-13T11:25:43;18.40;;;17.40;;
2175;SDS011;1094;49.902;10.876;2023-07-13T11:30:39;19.10;;;17.90;;
2175;SDS011;1094;49.902;10.876;2023-07-13T11:35:51;21.20;;;19.60;;
2175;SDS011;1094;49.902;10.876;2023-07-13T11:38:22;18.77;;;17.67;;
2175;SDS011;1094;49.902;10.876;2023-07-13T11:40:48;18.67;;;17.40;;
2175;SDS011;1094;49.902;10.876;2023-07-13T11:43:16;18.40;;;17.30;;
2175;SDS011;1094;49.902;10.876;2023-07-13T11:45:42;18.73;;;17.63;;
2175;SDS011;1094;49.902;10.876;2023-07-13T11:48:19;19.00;;;17.70;;
2175;SDS011;1094;49.902;10.876;2023-07-13T11:50:49;19.97;;;18.47;;
2175;SDS011;1094;49.902;10.876;2023-07-13T11:53:16;19.07;;;17.97;;
2175;SDS011;1094;49.902;10.876;2023-07-13T11:55:42;18.30;;;17.30;;
2175;SDS011;1094;49.902;10.876;2023-07-13T11:58:08;18.03;;;17.03;;
2175;SDS011;1094;49.902;10.876;2023-07-13T12:00:35;19.40;;;17.80;;
2175;SDS011;1094;49.902;10.876;2023-07-13T12:03:03;19.07;;;17.97;;
2175;SDS011;1094;49.902;10.876;2023-07-13T12:05:30;18.70;;;17.60;;
2175;SDS011;1094;49.902;10.876;2023-07-13T12:07:58;18.87;;;17.83;;
2175;SDS011;1094;49.902;10.876;2023-07-13T12:10:29;19.43;;;18.30;;
2175;SDS011;1094;49.902;10.876;2023-07-13T12:13:01;18.90;;;17.70;;
2175;SDS011;1094;49.902;10.876;2023-07-13T12:15:34;18.37;;;17.20;;
2175;SDS011;1094;49.902;10.876;2023-07-13T12:18:02;18.43;;;17.43;;
2175;SDS011;1094;49.902;10.876;2023-07-13T12:20:35;20.17;;;18.97;;
2175;SDS011;1094;49.902;10.876;2023-07-13T12:23:04;19.00;;;17.90;;
2175;SDS011;1094;49.902;10.876;2023-07-13T12:25:31;18.47;;;17.47;;
2175;SDS011;1094;49.902;10.876;2023-07-13T12:27:57;18.87;;;17.60;;
2175;SDS011;1094;49.902;10.876;2023-07-13T12:33:11;17.67;;;16.77;;
2175;SDS011;1094;49.902;10.876;2023-07-13T12:35:44;18.17;;;17.17;;
2175;SDS011;1094;49.902;10.876;2023-07-13T12:38:11;18.60;;;17.40;;
2175;SDS011;1094;49.902;10.876;2023-07-13T12:40:38;18.10;;;17.10;;
2175;SDS011;1094;49.902;10.876;2023-07-13T12:43:09;17.57;;;16.63;;
2175;SDS011;1094;49.902;10.876;2023-07-13T12:45:36;18.20;;;17.10;;
2175;SDS011;1094;49.902;10.876;2023-07-13T12:48:10;17.90;;;16.90;;
2175;SDS011;1094;49.902;10.876;2023-07-13T12:50:43;18.10;;;17.03;;
2175;SDS011;1094;49.902;10.876;2023-07-13T12:53:12;18.67;;;17.57;;
2175;SDS011;1094;49.902;10.876;2023-07-13T12:55:49;18.67;;;17.57;;
2175;SDS011;1094;49.902;10.876;2023-07-13T13:00:51;19.30;;;18.20;;
2175;SDS011;1094;49.902;10.876;2023-07-13T13:03:45;18.97;;;17.87;;
2175;SDS011;1094;49.902;10.876;2023-07-13T13:08:40;18.43;;;17.43;;
2175;SDS011;1094;49.902;10.876;2023-07-13T13:11:07;19.30;;;18.10;;
2175;SDS011;1094;49.902;10.876;2023-07-13T13:13:34;19.27;;;18.07;;
2175;SDS011;1094;49.902;10.876;2023-07-13T13:16:11;18.93;;;17.83;;
2175;SDS011;1094;49.902;10.876;2023-07-13T13:18:38;19.20;;;17.97;;
2175;SDS011;1094;49.902;10.876;2023-07-13T13:21:03;19.17;;;17.83;;
2175;SDS011;1094;49.902;10.876;2023-07-13T13:23:29;19.37;;;17.90;;
2175;SDS011;1094;49.902;10.876;2023-07-13T13:25:56;18.90;;;17.73;;
2175;SDS011;1094;49.902;10.876;2023-07-13T13:28:22;19.37;;;18.10;;
2175;SDS011;1094;49.902;10.876;2023-07-13T13:30:48;19.07;;;17.93;;
2175;SDS011;1094;49.902;10.876;2023-07-13T13:33:16;19.63;;;18.43;;
2175;SDS011;1094;49.902;10.876;2023-07-13T13:35:42;19.43;;;18.33;;
2175;SDS011;1094;49.902;10.876;2023-07-13T13:38:10;19.50;;;18.40;;
2175;SDS011;1094;49.902;10.876;2023-07-13T13:40:37;20.40;;;18.70;;
2175;SDS011;1094;49.902;10.876;2023-07-13T13:43:07;19.10;;;18.00;;
2175;SDS011;1094;49.902;10.876;2023-07-13T13:45:40;19.27;;;18.27;;
2175;SDS011;1094;49.902;10.876;2023-07-13T13:48:07;19.10;;;18.00;;
2175;SDS011;1094;49.902;10.876;2023-07-13T13:50:33;19.73;;;18.50;;
2175;SDS011;1094;49.902;10.876;2023-07-13T13:52:59;19.37;;;18.17;;
2175;SDS011;1094;49.902;10.876;2023-07-13T13:55:26;20.10;;;18.90;;
2175;SDS011;1094;49.902;10.876;2023-07-13T13:57:52;20.20;;;18.70;;
2175;SDS011;1094;49.902;10.876;2023-07-13T14:00:20;19.70;;;18.30;;
2175;SDS011;1094;49.902;10.876;2023-07-13T14:02:47;19.33;;;18.20;;
2175;SDS011;1094;49.902;10.876;2023-07-13T14:05:15;19.13;;;17.83;;
2175;SDS011;1094;49.902;10.876;2023-07-13T14:07:44;20.00;;;18.80;;
2175;SDS011;1094;49.902;10.876;2023-07-13T14:10:11;19.97;;;18.77;;
2175;SDS011;1094;49.902;10.876;2023-07-13T14:12:38;19.80;;;18.60;;
2175;SDS011;1094;49.902;10.876;2023-07-13T14:15:04;19.67;;;18.57;;
2175;SDS011;1094;49.902;10.876;2023-07-13T14:17:30;19.40;;;18.23;;
2175;SDS011;1094;49.902;10.876;2023-07-13T14:19:58;20.57;;;19.17;;
2175;SDS011;1094;49.902;10.876;2023-07-13T14:22:25;20.00;;;18.80;;
2175;SDS011;1094;49.902;10.876;2023-07-13T14:24:54;19.27;;;18.27;;
2175;SDS011;1094;49.902;10.876;2023-07-13T14:27:22;20.27;;;18.77;;
2175;SDS011;1094;49.902;10.876;2023-07-13T14:29:48;19.63;;;18.53;;
2175;SDS011;1094;49.902;10.876;2023-07-13T14:32:14;19.57;;;18.27;;
2175;SDS011;1094;49.902;10.876;2023-07-13T14:34:40;19.20;;;18.10;;
2175;SDS011;1094;49.902;10.876;2023-07-13T14:37:08;19.80;;;18.60;;
2175;SDS011;1094;49.902;10.876;2023-07-13T14:39:37;19.70;;;18.50;;
2175;SDS011;1094;49.902;10.876;2023-07-13T14:42:03;19.47;;;18.47;;
2175;SDS011;1094;49.902;10.876;2023-07-13T14:44:30;19.70;;;18.47;;
2175;SDS011;1094;49.902;10.876;2023-07-13T14:46:57;19.23;;;18.23;;
2175;SDS011;1094;49.902;10.876;2023-07-13T14:49:30;19.80;;;18.63;;
2175;SDS011;1094;49.902;10.876;2023-07-13T14:51:58;19.10;;;18.10;;
2175;SDS011;1094;49.902;10.876;2023-07-13T14:54:24;19.77;;;18.60;;
2175;SDS011;1094;49.902;10.876;2023-07-13T14:56:51;19.37;;;18.17;;
2175;SDS011;1094;49.902;10.876;2023-07-13T14:59:17;19.80;;;18.60;;
2175;SDS011;1094;49.902;10.876;2023-07-13T15:01:46;19.90;;;18.77;;
2175;SDS011;1094;49.902;10.876;2023-07-13T15:04:13;19.13;;;18.13;;